Time;durP1;ratioP1;P1;durP2;ratioP2;P2;SDS_P1;SDS_P2;PMS_P1;PMS_P2;Temp;Humidity;BMP_temperature;BMP_pressure;BME280_temperature;BME280_humidity;BME280_pressure;Samples;Min_cycle;Max_cycle;Signal;HPM_P1;HPM_P2
2022/06/27 04:21:10;;;;;;;6.80;6.20;;;;;;;20.74;78.37;100508.97;5556754;32;187965;-87
2022/06/27 04:24:16;;;;;;;10.57;5.97;;;;;;;20.74;78.37;100508.97;5544178;32;33965;-89
2022/06/27 04:27:20;;;;;;;7.15;5.07;;;;;;;20.42;79.33;100505.47;5543184;32;34304;-90
2022/06/27 04:30:25;;;;;;;5.65;5.12;;;;;;;20.57;78.91;100511.34;5543673;32;34026;-86
2022/06/27 04:33:29;;;;;;;6.35;5.32;;;;;;;20.67;78.25;100514.03;5543295;32;34606;-86
2022/06/27 04:36:40;;;;;;;8.00;5.15;;;;;;;20.80;78.40;100515.63;5546959;32;34683;-86
2022/06/27 04:39:43;;;;;;;6.62;5.00;;;;;;;21.11;76.14;100515.53;5539374;32;33799;-86
2022/06/27 04:42:51;;;;;;;5.93;5.15;;;;;;;21.16;77.05;100521.34;5550601;32;34223;-86
2022/06/27 04:45:54;;;;;;;8.45;5.18;;;;;;;21.12;76.92;100514.56;5535052;32;33812;-86
2022/06/27 04:48:59;;;;;;;7.68;5.18;;;;;;;21.15;76.42;100522.34;5530772;32;34406;-86
2022/06/27 04:52:06;;;;;;;8.43;5.10;;;;;;;21.34;76.32;100526.91;5524183;32;33782;-85
2022/06/27 04:55:12;;;;;;;6.53;4.62;;;;;;;21.41;74.88;100524.47;5533393;32;33837;-86
2022/06/27 04:58:15;;;;;;;5.82;5.20;;;;;;;21.81;73.92;100514.47;5543103;32;34569;-86
2022/06/27 05:01:19;;;;;;;6.85;4.80;;;;;;;21.96;73.21;100520.25;5543501;32;34478;-86
2022/06/27 05:04:23;;;;;;;5.65;4.78;;;;;;;22.11;72.70;100523.31;5542739;32;34079;-85
2022/06/27 05:07:28;;;;;;;5.93;4.60;;;;;;;22.48;70.91;100522.44;5545120;32;34149;-85
2022/06/27 05:10:31;;;;;;;10.68;4.78;;;;;;;22.75;68.89;100517.19;5542515;32;34540;-85
2022/06/27 05:13:34;;;;;;;5.05;4.65;;;;;;;22.87;69.10;100528.59;5542020;32;34518;-85
2022/06/27 05:16:39;;;;;;;8.82;4.75;;;;;;;22.61;69.30;100524.81;5543189;32;34475;-85
2022/06/27 05:19:42;;;;;;;6.05;4.70;;;;;;;22.61;69.49;100523.94;5542031;32;33755;-85
2022/06/27 05:22:45;;;;;;;7.45;4.30;;;;;;;24.57;63.25;100530.28;5543012;32;34328;-85
2022/06/27 05:25:49;;;;;;;7.62;4.20;;;;;;;28.19;52.09;100522.81;5544165;32;34061;-85
2022/06/27 05:28:52;;;;;;;6.25;3.97;;;;;;;30.46;44.49;100524.22;5542386;32;34297;-86
2022/06/27 05:31:55;;;;;;;6.18;3.70;;;;;;;32.54;39.62;100530.69;5532457;32;33767;-86
2022/06/27 05:35:06;;;;;;;4.37;3.83;;;;;;;35.18;34.59;100522.50;5529665;32;33889;-86
2022/06/27 05:38:10;;;;;;;4.87;3.35;;;;;;;34.98;33.65;100518.13;5529382;32;33550;-86
2022/06/27 05:41:13;;;;;;;4.40;3.55;;;;;;;37.47;30.55;100528.81;5528039;32;33294;-86
2022/06/27 05:44:16;;;;;;;6.90;3.50;;;;;;;38.73;28.30;100514.63;5529874;32;34463;-86
2022/06/27 05:47:18;;;;;;;6.10;3.28;;;;;;;39.56;26.55;100518.13;5529169;32;33913;-86
2022/06/27 05:50:21;;;;;;;7.37;3.30;;;;;;;39.51;26.25;100524.44;5529161;32;34124;-86
2022/06/27 05:53:24;;;;;;;3.22;2.92;;;;;;;40.23;25.22;100523.16;5530348;32;34133;-87
2022/06/27 05:56:29;;;;;;;4.37;3.60;;;;;;;39.61;26.17;100523.69;5518870;32;34726;-87
2022/06/27 05:59:33;;;;;;;6.45;3.33;;;;;;;40.82;25.30;100530.28;5517571;32;34088;-89
2022/06/27 06:02:36;;;;;;;9.80;3.50;;;;;;;40.72;24.80;100527.47;5512183;32;34795;-87
2022/06/27 06:05:41;;;;;;;4.82;3.08;;;;;;;40.58;24.29;100527.16;5512458;32;33850;-87
2022/06/27 06:08:43;;;;;;;6.62;3.55;;;;;;;40.90;23.91;100537.22;5523225;32;34783;-88
2022/06/27 06:11:48;;;;;;;5.68;3.58;;;;;;;42.03;22.94;100527.03;5540058;32;34126;-87
2022/06/27 06:14:52;;;;;;;5.05;3.37;;;;;;;39.15;26.43;100529.75;5530349;32;35142;-90
2022/06/27 06:17:56;;;;;;;5.50;3.62;;;;;;;37.34;29.44;100530.00;5528797;32;33671;-91
2022/06/27 06:20:59;;;;;;;8.02;3.42;;;;;;;39.05;26.46;100533.22;5528343;32;34231;-91
2022/06/27 06:24:03;;;;;;;6.37;3.45;;;;;;;40.35;24.46;100545.13;5528858;32;34209;-87
2022/06/27 06:27:05;;;;;;;4.62;3.17;;;;;;;40.23;23.88;100549.00;5528890;32;35102;-87
2022/06/27 06:30:09;;;;;;;3.47;3.15;;;;;;;39.81;24.74;100539.59;5528918;32;34430;-87
2022/06/27 06:33:13;;;;;;;26.83;4.25;;;;;;;40.29;24.63;100539.56;5528202;32;34563;-87
2022/06/27 06:36:18;;;;;;;6.80;3.33;;;;;;;39.47;25.55;100546.34;5525621;32;33950;-87
2022/06/27 06:39:21;;;;;;;3.90;3.50;;;;;;;40.15;24.46;100555.06;5528848;32;35276;-87
2022/06/27 06:42:25;;;;;;;6.55;3.28;;;;;;;39.07;26.12;100556.00;5525968;32;34909;-87
2022/06/27 06:45:32;;;;;;;4.28;3.22;;;;;;;36.89;29.10;100556.59;5508655;32;32402;-87
2022/06/27 06:48:40;;;;;;;3.87;3.40;;;;;;;36.37;30.26;100560.25;5510321;32;34470;-85
2022/06/27 06:51:50;;;;;;;7.53;3.55;;;;;;;35.17;31.58;100553.91;5510805;32;35240;-86
2022/06/27 06:54:53;;;;;;;6.95;3.60;;;;;;;34.43;32.60;100552.19;5508927;32;32450;-86
2022/06/27 06:57:55;;;;;;;4.25;3.50;;;;;;;33.92;34.66;100558.66;5518660;32;35139;-86
2022/06/27 07:00:58;;;;;;;4.30;3.90;;;;;;;33.39;35.32;100544.34;5516944;32;34172;-87
2022/06/27 07:04:02;;;;;;;9.05;4.10;;;;;;;32.66;37.30;100551.97;5515810;32;34152;-86
2022/06/27 07:07:05;;;;;;;6.45;4.10;;;;;;;33.15;35.89;100544.09;5510488;32;34483;-86
2022/06/27 07:10:10;;;;;;;6.35;3.70;;;;;;;33.30;36.24;100549.25;5517496;32;34339;-85
2022/06/27 07:13:16;;;;;;;7.32;4.10;;;;;;;32.08;37.04;100551.75;5519055;32;33722;-86
2022/06/27 07:16:24;;;;;;;4.15;3.80;;;;;;;31.78;37.62;100549.47;5510898;32;33421;-88
2022/06/27 07:19:29;;;;;;;7.72;3.90;;;;;;;31.23;39.28;100541.47;5520287;32;34246;-89
2022/06/27 07:22:32;;;;;;;7.18;3.90;;;;;;;31.55;38.49;100544.44;5532169;32;33732;-89
2022/06/27 07:25:36;;;;;;;5.95;4.18;;;;;;;31.49;38.83;100539.81;5536310;32;35010;-89
2022/06/27 07:28:40;;;;;;;4.82;4.20;;;;;;;31.24;39.27;100537.66;5511121;32;34824;-89
2022/06/27 07:31:43;;;;;;;8.88;3.97;;;;;;;31.18;39.26;100540.19;5510615;32;34093;-89
2022/06/27 07:34:46;;;;;;;4.00;3.70;;;;;;;31.33;39.36;100545.50;5512343;32;34429;-90
2022/06/27 07:37:49;;;;;;;5.35;4.00;;;;;;;31.24;38.98;100541.25;5566464;26;34106;-89
2022/06/27 07:40:52;;;;;;;4.15;3.70;;;;;;;31.59;38.51;100545.72;5521040;32;33713;-90
2022/06/27 07:43:55;;;;;;;4.25;3.80;;;;;;;31.63;38.26;100546.13;5593086;26;34231;-89
2022/06/27 07:46:58;;;;;;;5.30;3.85;;;;;;;31.64;38.14;100553.28;5548667;32;34528;-90
2022/06/27 08:08:46;;;;;;;4.00;3.70;;;;;;;32.98;34.69;100548.44;2286889;30;20115;-90
2022/06/27 08:11:49;;;;;;;3.87;3.50;;;;;;;33.26;34.69;100547.16;5512705;32;34652;-86
2022/06/27 08:14:52;;;;;;;6.30;4.00;;;;;;;33.71;33.18;100552.53;5526308;32;34234;-89
2022/06/27 08:17:57;;;;;;;4.80;3.95;;;;;;;33.76;34.04;100556.47;5529424;32;33874;-88
2022/06/27 08:21:04;;;;;;;5.87;3.60;;;;;;;34.28;33.19;100556.16;5531644;32;34820;-89
2022/06/27 08:24:11;;;;;;;5.75;3.70;;;;;;;34.88;32.64;100554.53;5530422;32;34389;-89
2022/06/27 08:27:14;;;;;;;5.72;4.25;;;;;;;35.66;31.70;100553.75;5531391;32;34009;-88
2022/06/27 08:30:17;;;;;;;5.72;3.70;;;;;;;35.05;30.89;100556.63;5531064;32;35541;-88
2022/06/27 08:33:20;;;;;;;4.30;3.90;;;;;;;35.54;30.67;100563.91;5529597;32;33610;-88
2022/06/27 08:36:23;;;;;;;4.50;3.72;;;;;;;35.42;30.48;100556.47;5528661;32;34015;-88
2022/06/27 08:39:28;;;;;;;5.35;3.65;;;;;;;35.47;31.00;100553.84;5528270;32;33915;-88
2022/06/27 08:42:31;;;;;;;4.10;3.70;;;;;;;35.49;31.35;100553.59;5528410;32;34151;-88
2022/06/27 08:45:34;;;;;;;4.50;3.58;;;;;;;36.01;29.94;100552.03;5533456;32;34007;-88
2022/06/27 08:48:41;;;;;;;4.95;3.40;;;;;;;35.48;29.88;100554.66;5526311;32;34329;-86
2022/06/27 08:51:44;;;;;;;6.68;3.10;;;;;;;36.03;29.26;100555.37;5507443;32;34566;-87
2022/06/27 08:54:47;;;;;;;4.12;3.80;;;;;;;35.79;29.32;100543.56;5509163;32;33624;-86
2022/06/27 08:57:49;;;;;;;3.92;3.58;;;;;;;35.70;29.84;100543.09;5514517;32;33903;-89
2022/06/27 09:00:53;;;;;;;3.72;3.00;;;;;;;36.05;29.17;100544.12;5496772;32;34734;-87
2022/06/27 09:04:00;;;;;;;8.88;3.60;;;;;;;36.60;28.02;100541.94;5496703;32;33793;-88
2022/06/27 09:07:03;;;;;;;4.85;3.75;;;;;;;35.95;28.24;100540.03;5509731;32;35300;-88
2022/06/27 09:10:42;;;;;;;4.82;3.55;;;;;;;36.39;28.85;100538.75;5511270;32;34442;-87
2022/06/27 09:13:45;;;;;;;5.15;3.28;;;;;;;37.27;26.86;100532.09;5467513;32;33653;-88
2022/06/27 09:16:57;;;;;;;3.62;3.33;;;;;;;36.93;27.26;100535.66;5471461;32;34150;-88
2022/06/27 09:20:00;;;;;;;4.18;3.70;;;;;;;37.18;26.88;100526.16;5482882;32;34596;-88
2022/06/27 09:23:04;;;;;;;4.25;3.75;;;;;;;36.54;27.85;100535.44;5476152;32;34260;-88
2022/06/27 09:26:18;;;;;;;6.65;4.30;;;;;;;37.05;28.03;100526.47;5473653;32;34269;-90
2022/06/27 09:29:22;;;;;;;4.30;3.58;;;;;;;37.45;27.93;100527.41;5475751;32;34339;-88
2022/06/27 09:32:25;;;;;;;7.78;3.62;;;;;;;36.89;28.48;100522.59;5461445;32;33661;-89
2022/06/27 09:35:38;;;;;;;5.18;3.50;;;;;;;37.65;26.55;100518.56;5458172;32;33990;-88
2022/06/27 09:38:42;;;;;;;3.60;3.30;;;;;;;38.00;26.14;100513.81;5455867;32;34073;-88
2022/06/27 09:42:01;;;;;;;3.50;3.20;;;;;;;37.69;26.60;100527.19;5460561;32;33848;-89
2022/06/27 09:45:07;;;;;;;4.40;3.30;;;;;;;38.42;25.15;100520.69;5475052;32;34111;-88
2022/06/27 09:48:10;;;;;;;3.80;3.00;;;;;;;37.98;24.67;100522.34;5496287;32;33709;-88
2022/06/27 09:51:16;;;;;;;3.78;3.33;;;;;;;38.11;24.42;100514.78;5507835;32;35351;-88
2022/06/27 09:54:20;;;;;;;4.25;3.85;;;;;;;38.61;24.81;100515.63;5495425;32;33576;-88
2022/06/27 09:57:24;;;;;;;4.10;3.70;;;;;;;38.11;25.22;100515.59;5501856;32;34104;-87
2022/06/27 10:00:27;;;;;;;11.60;3.60;;;;;;;37.49;26.38;100514.72;5510771;32;33685;-88
2022/06/27 10:03:35;;;;;;;6.15;3.53;;;;;;;36.44;27.47;100499.38;5511699;32;34200;-90
2022/06/27 10:06:41;;;;;;;5.60;3.58;;;;;;;36.54;27.90;100505.06;5507997;32;32344;-87
2022/06/27 10:09:45;;;;;;;4.22;3.30;;;;;;;36.71;27.24;100493.25;5508271;32;33470;-87
2022/06/27 10:13:04;;;;;;;6.20;3.67;;;;;;;35.55;28.96;100502.16;5506463;32;33888;-87
2022/06/27 10:16:13;;;;;;;9.18;4.00;;;;;;;35.24;29.74;100494.00;5509640;32;34003;-85
2022/06/27 10:19:16;;;;;;;4.28;3.83;;;;;;;35.45;29.88;100494.50;5522396;32;34717;-85
2022/06/27 10:22:26;;;;;;;7.37;3.60;;;;;;;35.75;29.24;100488.03;5514602;32;34162;-85
2022/06/27 10:25:29;;;;;;;;;;;;;;;36.36;28.27;100492.31;5513985;32;34386;-85
2022/06/27 10:28:35;;;;;;;4.65;3.40;;;;;;;38.40;25.19;100473.00;5512933;32;34221;-85
2022/06/27 10:31:45;;;;;;;7.47;3.60;;;;;;;39.21;24.16;100479.56;5511602;32;33523;-85
2022/06/27 10:34:54;;;;;;;4.37;3.28;;;;;;;38.24;24.92;100474.75;5519122;32;34044;-86
2022/06/27 10:37:56;;;;;;;5.57;3.53;;;;;;;38.64;24.54;100470.78;5520056;32;34914;-89
2022/06/27 10:41:04;;;;;;;3.62;3.33;;;;;;;37.40;25.21;100466.47;5514032;32;32525;-91
2022/06/27 10:44:31;;;;;;;3.62;3.33;;;;;;;37.35;25.24;100462.53;5517282;32;34651;-86
2022/06/27 10:47:33;;;;;;;3.67;3.35;;;;;;;37.22;25.91;100465.66;5510902;32;32992;-86
2022/06/27 10:50:40;;;;;;;4.18;3.47;;;;;;;36.61;26.82;100460.75;5511240;32;33889;-86
2022/06/27 10:53:45;;;;;;;7.30;3.50;;;;;;;35.94;27.77;100458.34;5505491;32;34216;-87
2022/06/27 10:56:50;;;;;;;5.05;3.25;;;;;;;35.81;27.29;100453.94;5495670;32;34260;-88
2022/06/27 10:59:59;;;;;;;5.05;3.40;;;;;;;36.15;26.94;100458.78;5503267;32;33959;-87
2022/06/27 11:03:03;;;;;;;6.45;3.28;;;;;;;36.59;25.82;100457.37;5502059;32;34019;-87
2022/06/27 11:06:08;;;;;;;3.85;3.47;;;;;;;37.03;25.58;100453.97;5491647;32;33777;-87
2022/06/27 11:09:11;;;;;;;4.57;3.17;;;;;;;38.05;23.75;100457.66;5491728;32;33797;-88
2022/06/27 11:12:16;;;;;;;3.70;3.15;;;;;;;38.32;23.87;100452.16;5498444;32;34426;-87
2022/06/27 11:15:19;;;;;;;3.72;3.42;;;;;;;37.34;24.12;100444.28;5509646;32;34337;-87
2022/06/27 11:18:22;;;;;;;6.30;3.30;;;;;;;37.56;24.40;100437.09;5509520;32;33901;-87
2022/06/27 11:21:27;;;;;;;3.83;3.25;;;;;;;37.19;24.01;100433.81;5510037;32;33948;-88
2022/06/27 11:24:32;;;;;;;3.37;3.08;;;;;;;36.13;25.64;100433.34;5511252;32;34846;-87
2022/06/27 11:27:51;;;;;;;4.07;3.50;;;;;;;36.34;25.24;100428.22;5512031;32;33916;-87
2022/06/27 11:34:16;;;;;;;4.93;3.50;;;;;;;35.98;25.44;100437.44;5491047;32;34406;-87
2022/06/27 11:37:22;;;;;;;4.53;3.40;;;;;;;34.88;27.22;100421.47;5490855;32;34037;-87
2022/06/27 11:40:24;;;;;;;3.65;3.35;;;;;;;35.16;27.61;100428.22;5488737;32;32922;-87
2022/06/27 11:44:07;;;;;;;4.10;3.35;;;;;;;35.60;26.72;100422.31;5490690;32;34076;-86
2022/06/27 11:47:10;;;;;;;5.20;3.40;;;;;;;35.20;27.62;100419.22;5481837;32;34662;-87
2022/06/27 11:50:19;;;;;;;4.50;3.33;;;;;;;35.16;27.41;100415.28;5491668;32;33967;-87
2022/06/27 11:53:22;;;;;;;5.28;3.37;;;;;;;35.76;26.69;100412.44;5491041;32;34235;-87
2022/06/27 11:56:27;;;;;;;4.10;3.30;;;;;;;35.85;26.76;100410.16;5490393;32;33934;-86
2022/06/27 11:59:30;;;;;;;4.75;3.90;;;;;;;35.85;27.04;100410.97;5490678;32;34624;-85
2022/06/27 12:02:36;;;;;;;6.60;3.53;;;;;;;34.28;29.26;100413.87;5491365;32;33922;-85
2022/06/27 12:05:42;;;;;;;5.62;3.95;;;;;;;34.22;29.56;100406.53;5490731;32;35097;-86
